Bixby, Oklahoma
Current Conditions -  °F | °C
As of 5:53 PM on Thursday 18 Dec 2014 (Local Time) from KRVS Reporting Station
Overcast Overcast  
Wind Chill:   Ceiling: 1200
Heat Index:   Visibility: 10mi
Dew Point:   Wind: 5mph
Humidity: 89%   Direction: 20°NNE
Pressure: 30.2"   Gusts: NA
Location:  35.94°N, 95.88°W
Report Text: KRVS 182353Z 02004KT 10SM OVC012 05/03 A3020 RMK AO2 SLP234 T00500033 10056 20044 53013
Loading
Personal Weather Stations






























Interactive Weather Map New forecast layout! Learn more

10-Day Weather Forecast

Advertisements
Track Severe Weather on mobile